Time,TemperatureF,DewpointF,PressureIn,WindDirection,WindDirectionDegrees,WindSpeedMPH,WindSpeedGustMPH,Humidity,HourlyPrecipIn,Conditions,Clouds,dailyrainin,SoftwareType,DateUTC
2013-03-20 00:04:00,56.3,40.3,29.15,ESE,108,3.0,8.0,55,0.00,-RA,-RA,0.00,WeatherDisplay:10.37,2013-03-20 07:04:00,
2013-03-20 00:09:00,56.5,40.5,29.15,ESE,115,3.0,6.0,55,0.00,-RA,-RA,0.00,WeatherDisplay:10.37,2013-03-20 07:09:00,
2013-03-20 00:14:00,56.8,40.8,29.15,ESE,105,3.0,8.0,55,0.00,-RA,-RA,0.00,WeatherDisplay:10.37,2013-03-20 07:14:00,
2013-03-20 00:24:00,57.0,39.1,29.15,ESE,122,5.0,10.0,51,0.00,-RA,-RA,0.00,WeatherDisplay:10.37,2013-03-20 07:24:00,
2013-03-20 00:34:00,57.2,38.7,29.15,SE,126,5.0,8.0,50,0.00,-RA,-RA,0.00,WeatherDisplay:10.37,2013-03-20 07:34:00,
2013-03-20 00:44:00,57.3,39.3,29.15,ESE,120,3.0,8.0,51,0.00,-RA,-RA,0.00,WeatherDisplay:10.37,2013-03-20 07:44:00,
2013-03-20 00:54:00,57.6,39.0,29.15,East,100,1.0,7.0,50,0.00,-RA,-RA,0.00,WeatherDisplay:10.37,2013-03-20 07:54:00,
2013-03-20 00:59:00,57.6,39.0,29.15,East,100,2.0,6.0,50,0.00,-RA,-RA,0.00,WeatherDisplay:10.37,2013-03-20 07:59:00,
2013-03-20 01:09:00,57.7,38.7,29.15,ESE,111,1.0,8.0,49,0.00,OVC,OVC,0.00,WeatherDisplay:10.37,2013-03-20 08:09:00,
2013-03-20 01:14:00,57.7,38.7,29.15,ESE,106,5.0,6.0,49,0.00,OVC,OVC,0.00,WeatherDisplay:10.37,2013-03-20 08:14:00,
2013-03-20 01:24:00,57.9,38.9,29.15,ESE,103,2.0,5.0,49,0.00,OVC,OVC,0.00,WeatherDisplay:10.37,2013-03-20 08:24:00,
2013-03-20 01:34:00,57.9,38.9,29.15,ESE,121,2.0,6.0,49,0.00,OVC,OVC,0.00,WeatherDisplay:10.37,2013-03-20 08:34:00,
2013-03-20 01:44:00,57.9,38.3,29.12,ESE,109,3.0,8.0,48,0.00,OVC,OVC,0.00,WeatherDisplay:10.37,2013-03-20 08:44:00,
2013-03-20 01:54:00,57.9,38.9,29.12,East,91,3.0,8.0,49,0.00,OVC,OVC,0.00,WeatherDisplay:10.37,2013-03-20 08:54:00,
2013-03-20 02:04:00,57.9,39.4,29.12,East,95,3.0,8.0,50,0.00,OVC,OVC,0.00,WeatherDisplay:10.37,2013-03-20 09:04:00,
2013-03-20 02:09:00,57.9,38.9,29.12,East,101,3.0,7.0,49,0.00,RA,RA,0.04,WeatherDisplay:10.37,2013-03-20 09:09:00,
2013-03-20 02:14:00,57.9,39.4,29.12,East,101,5.0,6.0,50,0.00,RA,RA,0.04,WeatherDisplay:10.37,2013-03-20 09:14:00,
2013-03-20 02:24:00,57.9,38.9,29.12,SE,128,3.0,6.0,49,0.00,OVC,OVC,0.04,WeatherDisplay:10.37,2013-03-20 09:24:00,
2013-03-20 02:34:00,57.7,38.7,29.12,SE,139,3.0,6.0,49,0.00,OVC,OVC,0.04,WeatherDisplay:10.37,2013-03-20 09:34:00,
2013-03-20 02:44:00,57.6,38.5,29.15,ESE,121,3.0,8.0,49,0.00,OVC,OVC,0.04,WeatherDisplay:10.37,2013-03-20 09:44:00,
2013-03-20 02:54:00,57.6,38.0,29.15,East,85,3.0,6.0,48,0.00,OVC,OVC,0.04,WeatherDisplay:10.37,2013-03-20 09:54:00,
2013-03-20 03:04:00,57.6,38.0,29.15,ESE,112,2.0,5.0,48,0.00,OVC,OVC,0.04,WeatherDisplay:10.37,2013-03-20 10:04:00,
2013-03-20 03:09:00,57.5,38.5,29.15,SE,127,2.0,6.0,49,0.00,-RA,-RA,0.04,WeatherDisplay:10.37,2013-03-20 10:09:00,
2013-03-20 03:14:00,57.4,38.4,29.15,SE,134,2.0,6.0,49,0.04,-RA,-RA,0.08,WeatherDisplay:10.37,2013-03-20 10:14:00,
2013-03-20 03:24:00,57.4,39.9,29.15,SE,141,3.0,6.0,52,0.00,-RA,-RA,0.08,WeatherDisplay:10.37,2013-03-20 10:24:00,
2013-03-20 03:34:00,57.3,41.7,29.15,South,186,7.0,12.0,56,0.00,-RA,-RA,0.08,WeatherDisplay:10.37,2013-03-20 10:34:00,
2013-03-20 03:44:00,57.0,42.8,29.15,South,188,2.0,5.0,59,0.00,-RA,-RA,0.08,WeatherDisplay:10.37,2013-03-20 10:44:00,
2013-03-20 03:49:00,56.8,42.7,29.15,South,191,0.0,5.0,59,0.00,-RA,-RA,0.08,WeatherDisplay:10.37,2013-03-20 10:49:00,
2013-03-20 03:54:00,56.3,42.1,29.15,SW,220,1.0,3.0,59,0.00,-RA,-RA,0.08,WeatherDisplay:10.37,2013-03-20 10:54:00,
2013-03-20 04:04:00,56.1,41.9,29.15,SW,230,0.0,0.0,59,0.00,-RA,-RA,0.12,WeatherDisplay:10.37,2013-03-20 11:04:00,
2013-03-20 04:09:00,56.3,42.1,29.12,SW,217,0.0,0.0,59,0.00,-RA,-RA,0.12,WeatherDisplay:10.37,2013-03-20 11:09:00,
2013-03-20 04:14:00,56.5,42.3,29.12,ENE,65,0.0,0.0,59,0.00,-RA,-RA,0.12,WeatherDisplay:10.37,2013-03-20 11:14:00,
2013-03-20 04:24:00,56.8,42.7,29.12,NE,49,0.0,0.0,59,0.00,-RA,-RA,0.12,WeatherDisplay:10.37,2013-03-20 11:24:00,
2013-03-20 04:34:00,57.2,43.0,29.12,ENE,67,0.0,4.0,59,0.00,-RA,-RA,0.12,WeatherDisplay:10.37,2013-03-20 11:34:00,
2013-03-20 04:44:00,57.4,43.2,29.12,ESE,117,0.0,4.0,59,0.04,-RA,-RA,0.16,WeatherDisplay:10.37,2013-03-20 11:44:00,
2013-03-20 04:54:00,57.6,43.3,29.12,SE,140,0.0,4.0,59,0.00,-RA,-RA,0.16,WeatherDisplay:10.37,2013-03-20 11:54:00,
2013-03-20 05:04:00,57.6,42.9,29.12,NNE,23,0.0,0.0,58,0.00,-RA,-RA,0.16,WeatherDisplay:10.37,2013-03-20 12:04:00,
2013-03-20 05:09:00,57.6,42.9,29.12,NNE,14,0.0,0.0,58,0.00,-RA,-RA,0.16,WeatherDisplay:10.37,2013-03-20 12:09:00,
2013-03-20 05:14:00,57.6,42.9,29.12,NNE,14,0.0,0.0,58,0.00,-RA,-RA,0.16,WeatherDisplay:10.37,2013-03-20 12:14:00,
2013-03-20 05:24:00,57.5,42.8,29.12,NNE,24,0.0,4.0,58,0.00,-RA,-RA,0.20,WeatherDisplay:10.37,2013-03-20 12:24:00,
2013-03-20 05:34:00,57.4,42.7,29.12,NNE,32,0.0,3.0,58,0.00,-RA,-RA,0.20,WeatherDisplay:10.37,2013-03-20 12:34:00,
2013-03-20 05:44:00,57.4,42.7,29.12,NE,36,0.0,4.0,58,0.00,-RA,-RA,0.20,WeatherDisplay:10.37,2013-03-20 12:44:00,
2013-03-20 05:54:00,57.4,42.7,29.12,ENE,68,0.0,4.0,58,0.00,-RA,-RA,0.20,WeatherDisplay:10.37,2013-03-20 12:54:00,
2013-03-20 06:04:00,57.4,42.3,29.12,ESE,106,1.0,3.0,57,0.00,-RA,-RA,0.20,WeatherDisplay:10.37,2013-03-20 13:04:00,
2013-03-20 06:09:00,57.6,42.4,29.12,East,100,1.0,4.0,57,0.00,-RA,-RA,0.20,WeatherDisplay:10.37,2013-03-20 13:09:00,
2013-03-20 06:14:00,57.5,42.3,29.12,East,96,0.0,5.0,57,0.00,-RA,-RA,0.20,WeatherDisplay:10.37,2013-03-20 13:14:00,
2013-03-20 06:24:00,57.4,42.3,29.12,NE,51,0.0,4.0,57,0.00,-RA,-RA,0.20,WeatherDisplay:10.37,2013-03-20 13:24:00,
2013-03-20 06:34:00,57.4,42.3,29.12,NNE,28,0.0,0.0,57,0.00,-RA,-RA,0.20,WeatherDisplay:10.37,2013-03-20 13:34:00,
2013-03-20 06:44:00,57.4,42.3,29.12,NNE,28,0.0,4.0,57,0.00,-RA,-RA,0.20,WeatherDisplay:10.37,2013-03-20 13:44:00,
2013-03-20 06:54:00,57.2,42.1,29.12,NE,40,0.0,4.0,57,0.00,-RA,-RA,0.24,WeatherDisplay:10.37,2013-03-20 13:54:00,
2013-03-20 07:04:00,57.1,42.0,29.12,ENE,69,0.0,4.0,57,0.00,-RA,-RA,0.24,WeatherDisplay:10.37,2013-03-20 14:04:00,
2013-03-20 07:09:00,57.2,42.1,29.12,ENE,67,0.0,5.0,57,0.00,-RA,-RA,0.24,WeatherDisplay:10.37,2013-03-20 14:09:00,
2013-03-20 07:14:00,57.2,42.1,29.12,NE,46,0.0,3.0,57,0.00,-RA,-RA,0.24,WeatherDisplay:10.37,2013-03-20 14:14:00,
2013-03-20 07:24:00,57.0,41.9,29.12,NE,54,0.0,3.0,57,0.00,-RA,-RA,0.24,WeatherDisplay:10.37,2013-03-20 14:24:00,
2013-03-20 07:34:00,57.0,41.9,29.12,NE,55,0.0,3.0,57,0.00,-RA,-RA,0.24,WeatherDisplay:10.37,2013-03-20 14:34:00,
2013-03-20 07:39:00,56.8,41.8,29.12,East,85,2.0,6.0,57,0.00,-RA,-RA,0.24,WeatherDisplay:10.37,2013-03-20 14:39:00,
2013-03-20 07:44:00,57.0,41.5,29.12,East,98,1.0,4.0,56,0.00,-RA,-RA,0.24,WeatherDisplay:10.37,2013-03-20 14:44:00,
2013-03-20 07:54:00,57.0,41.9,29.12,SSE,147,0.0,4.0,57,0.00,-RA,-RA,0.28,WeatherDisplay:10.37,2013-03-20 14:54:00,
2013-03-20 08:04:00,56.8,42.2,29.12,SSW,207,2.0,5.0,58,0.00,-RA,-RA,0.28,WeatherDisplay:10.37,2013-03-20 15:04:00,
2013-03-20 08:09:00,57.0,42.8,29.12,SSW,212,2.0,4.0,59,0.00,-RA,-RA,0.28,WeatherDisplay:10.37,2013-03-20 15:09:00,
2013-03-20 08:14:00,57.0,43.3,29.12,SSW,211,2.0,4.0,60,0.00,-RA,-RA,0.28,WeatherDisplay:10.37,2013-03-20 15:14:00,
2013-03-20 08:19:00,57.0,43.7,29.12,SSW,207,1.0,4.0,61,0.00,-RA,-RA,0.28,WeatherDisplay:10.37,2013-03-20 15:19:00,
2013-03-20 08:24:00,57.0,43.7,29.15,SSW,204,0.0,3.0,61,0.00,-RA,-RA,0.28,WeatherDisplay:10.37,2013-03-20 15:24:00,
2013-03-20 08:34:00,57.0,43.7,29.15,SSW,204,0.0,0.0,61,0.00,-RA,-RA,0.28,WeatherDisplay:10.37,2013-03-20 15:34:00,
2013-03-20 08:44:00,57.2,43.4,29.15,SSW,204,0.0,0.0,60,0.00,-RA,-RA,0.28,WeatherDisplay:10.37,2013-03-20 15:44:00,
2013-03-20 08:54:00,57.2,43.4,29.15,South,184,0.0,3.0,60,0.00,-RA,-RA,0.31,WeatherDisplay:10.37,2013-03-20 15:54:00,
2013-03-20 09:04:00,57.6,44.2,29.15,SSE,152,0.0,3.0,61,0.00,-RA,-RA,0.31,WeatherDisplay:10.37,2013-03-20 16:04:00,
2013-03-20 09:09:00,57.6,44.2,29.15,SSE,152,0.0,3.0,61,0.00,OVC,OVC,0.31,WeatherDisplay:10.37,2013-03-20 16:09:00,
2013-03-20 09:14:00,57.6,44.2,29.15,SSE,158,0.0,3.0,61,0.00,OVC,OVC,0.31,WeatherDisplay:10.37,2013-03-20 16:14:00,
2013-03-20 09:24:00,57.6,44.6,29.12,SE,129,1.0,4.0,62,0.00,OVC,OVC,0.31,WeatherDisplay:10.37,2013-03-20 16:24:00,
2013-03-20 09:34:00,57.7,45.2,29.12,ESE,123,1.0,4.0,63,0.00,OVC,OVC,0.31,WeatherDisplay:10.37,2013-03-20 16:34:00,
2013-03-20 09:44:00,58.3,45.7,29.12,SE,138,1.0,5.0,63,0.00,OVC,OVC,0.31,WeatherDisplay:10.37,2013-03-20 16:44:00,
2013-03-20 09:49:00,58.3,44.4,29.12,SSE,153,2.0,6.0,60,0.00,OVC,OVC,0.31,WeatherDisplay:10.37,2013-03-20 16:49:00,
2013-03-20 09:54:00,58.5,43.7,29.12,SSE,151,3.0,6.0,58,0.00,OVC,OVC,0.31,WeatherDisplay:10.37,2013-03-20 16:54:00,
2013-03-20 10:04:00,58.8,43.1,29.12,SE,127,3.0,6.0,56,0.00,OVC,OVC,0.31,WeatherDisplay:10.37,2013-03-20 17:04:00,
2013-03-20 10:09:00,59.0,42.8,29.12,SE,137,2.0,5.0,55,0.00,OVC,OVC,0.31,WeatherDisplay:10.37,2013-03-20 17:09:00,
2013-03-20 10:14:00,59.0,42.4,29.12,SSE,158,5.0,6.0,54,0.00,OVC,OVC,0.31,WeatherDisplay:10.37,2013-03-20 17:14:00,
2013-03-20 10:24:00,59.4,42.2,29.12,SSE,152,5.0,8.0,53,0.00,OVC,OVC,0.31,WeatherDisplay:10.37,2013-03-20 17:24:00,
2013-03-20 10:34:00,59.5,40.9,29.12,SSE,152,5.0,8.0,50,0.00,OVC,OVC,0.31,WeatherDisplay:10.37,2013-03-20 17:34:00,
2013-03-20 10:44:00,60.0,41.3,29.12,SSE,154,5.0,8.0,50,0.00,OVC,OVC,0.31,WeatherDisplay:10.37,2013-03-20 17:44:00,
2013-03-20 10:54:00,59.7,40.0,29.12,SSE,161,5.0,8.0,48,0.00,OVC,OVC,0.31,WeatherDisplay:10.37,2013-03-20 17:54:00,
2013-03-20 11:04:00,60.1,40.8,29.12,SSE,163,3.0,7.0,49,0.00,OVC,OVC,0.31,WeatherDisplay:10.37,2013-03-20 18:04:00,
2013-03-20 11:09:00,60.1,40.3,29.12,SSE,167,5.0,9.0,48,0.00,OVC,OVC,0.31,WeatherDisplay:10.37,2013-03-20 18:09:00,
2013-03-20 11:14:00,60.1,40.3,29.12,SSE,158,5.0,8.0,48,0.00,OVC,OVC,0.31,WeatherDisplay:10.37,2013-03-20 18:14:00,
2013-03-20 11:24:00,60.4,40.6,29.12,SSE,163,5.0,7.0,48,0.00,OVC,OVC,0.31,WeatherDisplay:10.37,2013-03-20 18:24:00,
2013-03-20 11:29:00,60.4,40.6,29.12,SSE,163,5.0,8.0,48,0.00,OVC,OVC,0.31,WeatherDisplay:10.37,2013-03-20 18:29:00,
2013-03-20 11:34:00,60.4,40.1,29.12,SSE,162,6.0,9.0,47,0.00,OVC,OVC,0.31,WeatherDisplay:10.37,2013-03-20 18:34:00,
2013-03-20 11:39:00,60.5,39.6,29.12,SSE,163,7.0,8.0,46,0.00,OVC,OVC,0.31,WeatherDisplay:10.37,2013-03-20 18:39:00,
2013-03-20 11:44:00,60.7,39.7,29.12,SSE,166,6.0,9.0,46,0.00,OVC,OVC,0.31,WeatherDisplay:10.37,2013-03-20 18:44:00,
2013-03-20 11:49:00,60.7,39.8,29.12,South,169,6.0,9.0,46,0.00,OVC,OVC,0.31,WeatherDisplay:10.37,2013-03-20 18:49:00,
2013-03-20 11:54:00,60.9,39.4,29.12,South,171,6.0,12.0,45,0.00,OVC,OVC,0.31,WeatherDisplay:10.37,2013-03-20 18:54:00,
2013-03-20 12:04:00,60.8,39.9,29.12,South,174,6.0,11.0,46,0.00,OVC,OVC,0.31,WeatherDisplay:10.37,2013-03-20 19:04:00,
2013-03-20 12:09:00,61.0,40.0,29.12,South,176,6.0,9.0,46,0.00,OVC,OVC,0.31,WeatherDisplay:10.37,2013-03-20 19:09:00,
2013-03-20 12:14:00,61.0,40.0,29.12,South,175,5.0,9.0,46,0.00,OVC,OVC,0.31,WeatherDisplay:10.37,2013-03-20 19:14:00,
2013-03-20 12:24:00,61.4,42.0,29.15,South,180,3.0,8.0,49,0.00,OVC,OVC,0.31,WeatherDisplay:10.37,2013-03-20 19:24:00,
2013-03-20 12:34:00,61.2,43.4,29.15,South,191,3.0,6.0,52,0.00,OVC,OVC,0.31,WeatherDisplay:10.37,2013-03-20 19:34:00,
2013-03-20 12:44:00,61.5,44.7,29.15,South,190,6.0,11.0,54,0.00,OVC,OVC,0.31,WeatherDisplay:10.37,2013-03-20 19:44:00,
2013-03-20 12:54:00,61.4,43.1,29.15,South,184,5.0,8.0,51,0.00,OVC,OVC,0.31,WeatherDisplay:10.37,2013-03-20 19:54:00,
2013-03-20 13:04:00,61.1,40.7,29.15,South,189,1.0,6.0,47,0.00,OVC,OVC,0.31,WeatherDisplay:10.37,2013-03-20 20:04:00,
2013-03-20 13:14:00,61.5,41.6,29.15,South,172,0.0,4.0,48,0.00,OVC,OVC,0.31,WeatherDisplay:10.37,2013-03-20 20:14:00,
2013-03-20 13:24:00,61.6,41.2,29.15,South,187,3.0,4.0,47,0.00,OVC,OVC,0.31,WeatherDisplay:10.37,2013-03-20 20:24:00,
2013-03-20 13:34:00,62.0,41.0,29.15,South,191,3.0,6.0,46,0.00,OVC,OVC,0.31,WeatherDisplay:10.37,2013-03-20 20:34:00,
2013-03-20 13:44:00,62.6,39.8,29.15,South,179,5.0,8.0,43,0.00,OVC,OVC,0.31,WeatherDisplay:10.37,2013-03-20 20:44:00,
2013-03-20 13:54:00,62.9,40.0,29.12,SSW,192,6.0,8.0,43,0.00,OVC,OVC,0.31,WeatherDisplay:10.37,2013-03-20 20:54:00,
2013-03-20 14:04:00,62.2,40.0,29.12,SSW,197,6.0,9.0,44,0.00,OVC,OVC,0.31,WeatherDisplay:10.37,2013-03-20 21:04:00,
2013-03-20 14:09:00,60.8,36.9,29.15,SSW,209,13.0,15.0,41,0.00,-RA,-RA,0.31,WeatherDisplay:10.37,2013-03-20 21:09:00,
2013-03-20 14:14:00,59.4,37.5,29.15,SW,214,9.0,14.0,44,0.00,-RA,-RA,0.31,WeatherDisplay:10.37,2013-03-20 21:14:00,
2013-03-20 14:24:00,59.2,40.0,29.15,SW,214,8.0,13.0,49,0.00,-RA,-RA,0.31,WeatherDisplay:10.37,2013-03-20 21:24:00,
2013-03-20 14:34:00,58.9,42.3,29.15,SSW,212,8.0,13.0,54,0.00,-RA,-RA,0.31,WeatherDisplay:10.37,2013-03-20 21:34:00,
2013-03-20 14:44:00,58.8,42.7,29.15,SSW,208,7.0,8.0,55,0.00,-RA,-RA,0.31,WeatherDisplay:10.37,2013-03-20 21:44:00,
2013-03-20 14:54:00,58.8,42.7,29.15,SSW,211,1.0,6.0,55,0.00,-RA,-RA,0.31,WeatherDisplay:10.37,2013-03-20 21:54:00,
2013-03-20 15:04:00,58.8,42.7,29.15,SSW,205,1.0,6.0,55,0.00,-RA,-RA,0.31,WeatherDisplay:10.37,2013-03-20 22:04:00,
2013-03-20 15:14:00,58.6,42.5,29.15,SSE,163,0.0,4.0,55,0.00,-RA,-RA,0.35,WeatherDisplay:10.37,2013-03-20 22:14:00,
2013-03-20 15:24:00,58.9,43.3,29.15,SE,135,0.0,2.0,56,0.00,-RA,-RA,0.35,WeatherDisplay:10.37,2013-03-20 22:24:00,
2013-03-20 15:34:00,59.5,43.8,29.15,East,88,0.0,0.0,56,0.00,-RA,-RA,0.35,WeatherDisplay:10.37,2013-03-20 22:34:00,
2013-03-20 15:44:00,60.0,44.2,29.15,ENE,69,0.0,4.0,56,0.00,-RA,-RA,0.35,WeatherDisplay:10.37,2013-03-20 22:44:00,
2013-03-20 15:54:00,59.8,43.1,29.15,SE,134,2.0,6.0,54,0.00,-RA,-RA,0.35,WeatherDisplay:10.37,2013-03-20 22:54:00,
2013-03-20 16:04:00,60.1,42.9,29.15,SE,125,3.0,4.0,53,0.00,-RA,-RA,0.35,WeatherDisplay:10.37,2013-03-20 23:04:00,
2013-03-20 16:09:00,60.2,42.0,29.12,ESE,121,3.0,6.0,51,0.00,-RA,-RA,0.35,WeatherDisplay:10.37,2013-03-20 23:09:00,
2013-03-20 16:14:00,61.3,44.5,29.12,East,96,3.0,6.0,54,0.00,-RA,-RA,0.35,WeatherDisplay:10.37,2013-03-20 23:14:00,
2013-03-20 16:24:00,61.3,41.5,29.12,ESE,112,2.0,6.0,48,0.00,-RA,-RA,0.35,WeatherDisplay:10.37,2013-03-20 23:24:00,
2013-03-20 16:34:00,60.6,39.7,29.12,SE,124,3.0,6.0,46,0.00,-RA,-RA,0.35,WeatherDisplay:10.37,2013-03-20 23:34:00,
2013-03-20 16:44:00,60.8,40.4,29.12,East,94,3.0,6.0,47,0.00,-RA,-RA,0.35,WeatherDisplay:10.37,2013-03-20 23:44:00,
2013-03-20 16:54:00,61.3,40.9,29.12,East,84,0.0,4.0,47,0.00,-RA,-RA,0.35,WeatherDisplay:10.37,2013-03-20 23:54:00,
2013-03-20 17:04:00,61.3,39.8,29.12,SE,138,0.0,4.0,45,0.00,-RA,-RA,0.35,WeatherDisplay:10.37,2013-03-21 00:04:00,
2013-03-20 17:09:00,61.0,39.5,29.12,SE,132,1.0,6.0,45,0.00,BKN,BKN,0.35,WeatherDisplay:10.37,2013-03-21 00:09:00,
2013-03-20 17:14:00,61.0,39.5,29.12,ESE,110,2.0,6.0,45,0.00,BKN,BKN,0.35,WeatherDisplay:10.37,2013-03-21 00:14:00,
2013-03-20 17:24:00,61.2,39.1,29.12,SE,136,3.0,5.0,44,0.00,BKN,BKN,0.35,WeatherDisplay:10.37,2013-03-21 00:24:00,
2013-03-20 17:34:00,61.0,38.9,29.12,SE,144,2.0,4.0,44,0.00,BKN,BKN,0.35,WeatherDisplay:10.37,2013-03-21 00:34:00,
2013-03-20 17:44:00,60.8,38.8,29.12,SE,130,2.0,6.0,44,0.00,BKN,BKN,0.35,WeatherDisplay:10.37,2013-03-21 00:44:00,
2013-03-20 17:54:00,61.0,39.5,29.09,SE,136,1.0,6.0,45,0.00,BKN,BKN,0.35,WeatherDisplay:10.37,2013-03-21 00:54:00,
2013-03-20 18:04:00,61.0,38.9,29.09,SE,139,3.0,5.0,44,0.00,BKN,BKN,0.35,WeatherDisplay:10.37,2013-03-21 01:04:00,
2013-03-20 18:09:00,60.8,38.7,29.12,SE,140,3.0,6.0,44,0.00,OVC,OVC,0.35,WeatherDisplay:10.37,2013-03-21 01:09:00,
2013-03-20 18:14:00,60.6,39.1,29.12,SE,130,3.0,6.0,45,0.00,OVC,OVC,0.35,WeatherDisplay:10.37,2013-03-21 01:14:00,
2013-03-20 18:19:00,60.6,39.1,29.12,ESE,120,0.0,4.0,45,0.00,OVC,OVC,0.35,WeatherDisplay:10.37,2013-03-21 01:19:00,
2013-03-20 18:24:00,60.6,39.1,29.12,ESE,114,0.0,3.0,45,0.00,OVC,OVC,0.35,WeatherDisplay:10.37,2013-03-21 01:24:00,
2013-03-20 18:34:00,60.4,39.0,29.12,SE,136,1.0,4.0,45,0.00,OVC,OVC,0.35,WeatherDisplay:10.37,2013-03-21 01:34:00,
2013-03-20 18:44:00,60.3,38.8,29.12,SSE,153,1.0,3.0,45,0.00,OVC,OVC,0.35,WeatherDisplay:10.37,2013-03-21 01:44:00,
2013-03-20 18:54:00,60.3,38.8,29.12,SSE,161,0.0,4.0,45,0.00,OVC,OVC,0.35,WeatherDisplay:10.37,2013-03-21 01:54:00,
2013-03-20 19:04:00,60.1,39.2,29.12,SSE,162,3.0,6.0,46,0.00,OVC,OVC,0.35,WeatherDisplay:10.37,2013-03-21 02:04:00,
2013-03-20 19:09:00,60.1,39.2,29.12,SSE,165,1.0,5.0,46,0.00,OVC,OVC,0.35,WeatherDisplay:10.37,2013-03-21 02:09:00,
2013-03-20 19:14:00,60.1,39.8,29.12,SSE,167,0.0,4.0,47,0.00,OVC,OVC,0.35,WeatherDisplay:10.37,2013-03-21 02:14:00,
2013-03-20 19:24:00,60.1,39.8,29.12,SSE,166,0.0,3.0,47,0.00,OVC,OVC,0.35,WeatherDisplay:10.37,2013-03-21 02:24:00,
2013-03-20 19:34:00,60.1,40.3,29.12,SSE,168,0.0,0.0,48,0.00,OVC,OVC,0.35,WeatherDisplay:10.37,2013-03-21 02:34:00,
2013-03-20 19:44:00,59.9,40.1,29.12,South,169,0.0,0.0,48,0.00,OVC,OVC,0.35,WeatherDisplay:10.37,2013-03-21 02:44:00,
2013-03-20 19:54:00,59.9,40.1,29.12,South,169,0.0,0.0,48,0.00,OVC,OVC,0.35,WeatherDisplay:10.37,2013-03-21 02:54:00,
2013-03-20 20:04:00,60.1,42.4,29.12,SSW,195,2.0,5.0,52,0.00,OVC,OVC,0.35,WeatherDisplay:10.37,2013-03-21 03:04:00,
2013-03-20 20:09:00,59.9,43.2,29.12,SSW,213,3.0,6.0,54,0.00,BKN,BKN,0.35,WeatherDisplay:10.37,2013-03-21 03:09:00,
2013-03-20 20:14:00,59.9,43.7,29.12,SW,217,2.0,6.0,55,0.00,BKN,BKN,0.35,WeatherDisplay:10.37,2013-03-21 03:14:00,
2013-03-20 20:19:00,59.9,44.2,29.12,SW,223,2.0,6.0,56,0.00,BKN,BKN,0.35,WeatherDisplay:10.37,2013-03-21 03:19:00,
2013-03-20 20:24:00,59.9,44.6,29.12,SW,221,2.0,4.0,57,0.00,BKN,BKN,0.35,WeatherDisplay:10.37,2013-03-21 03:24:00,
2013-03-20 20:34:00,59.9,44.6,29.12,SSW,210,3.0,5.0,57,0.00,BKN,BKN,0.35,WeatherDisplay:10.37,2013-03-21 03:34:00,
2013-03-20 20:44:00,59.9,44.6,29.12,SSW,209,3.0,4.0,57,0.00,BKN,BKN,0.35,WeatherDisplay:10.37,2013-03-21 03:44:00,
2013-03-20 20:49:00,59.9,44.6,29.12,SSW,205,3.0,5.0,57,0.00,BKN,BKN,0.35,WeatherDisplay:10.37,2013-03-21 03:49:00,
2013-03-20 20:54:00,59.9,44.6,29.12,SSW,204,3.0,4.0,57,0.00,BKN,BKN,0.35,WeatherDisplay:10.37,2013-03-21 03:54:00,
2013-03-20 20:59:00,59.7,44.5,29.12,SSW,204,2.0,4.0,57,0.00,BKN,BKN,0.35,WeatherDisplay:10.37,2013-03-21 03:59:00,
2013-03-20 21:04:00,59.7,44.5,29.12,SSW,204,0.0,3.0,57,0.00,BKN,BKN,0.35,WeatherDisplay:10.37,2013-03-21 04:04:00,
2013-03-20 21:09:00,59.7,44.5,29.12,SSW,204,0.0,0.0,57,0.00,BKN,BKN,0.35,WeatherDisplay:10.37,2013-03-21 04:09:00,
2013-03-20 21:14:00,59.7,44.5,29.12,SSW,204,0.0,0.0,57,0.00,BKN,BKN,0.35,WeatherDisplay:10.37,2013-03-21 04:14:00,
2013-03-20 21:24:00,59.7,44.5,29.12,South,175,0.0,3.0,57,0.00,BKN,BKN,0.35,WeatherDisplay:10.37,2013-03-21 04:24:00,
2013-03-20 21:34:00,59.5,44.3,29.12,South,173,0.0,2.0,57,0.00,BKN,BKN,0.35,WeatherDisplay:10.37,2013-03-21 04:34:00,
2013-03-20 21:44:00,59.7,44.9,29.12,South,169,3.0,5.0,58,0.00,BKN,BKN,0.35,WeatherDisplay:10.37,2013-03-21 04:44:00,
2013-03-20 21:54:00,59.7,44.9,29.15,South,172,0.0,4.0,58,0.00,BKN,BKN,0.35,WeatherDisplay:10.37,2013-03-21 04:54:00,
2013-03-20 21:59:00,59.7,45.4,29.15,South,188,2.0,4.0,59,0.00,BKN,BKN,0.35,WeatherDisplay:10.37,2013-03-21 04:59:00,
2013-03-20 22:04:00,59.5,44.7,29.15,SSW,203,3.0,4.0,58,0.00,BKN,BKN,0.35,WeatherDisplay:10.37,2013-03-21 05:04:00,
2013-03-20 22:09:00,59.2,43.9,29.15,SW,215,3.0,6.0,57,0.00,SKC,SKC,0.35,WeatherDisplay:10.37,2013-03-21 05:09:00,
2013-03-20 22:14:00,59.2,43.9,29.15,SW,223,3.0,6.0,57,0.00,SKC,SKC,0.35,WeatherDisplay:10.37,2013-03-21 05:14:00,
2013-03-20 22:24:00,58.8,44.5,29.15,SSW,207,5.0,6.0,59,0.00,SKC,SKC,0.35,WeatherDisplay:10.37,2013-03-21 05:24:00,
2013-03-20 22:34:00,58.3,44.0,29.15,SSW,203,5.0,6.0,59,0.00,SKC,SKC,0.35,WeatherDisplay:10.37,2013-03-21 05:34:00,
2013-03-20 22:44:00,58.1,44.3,29.15,SSW,211,3.0,6.0,60,0.00,SKC,SKC,0.35,WeatherDisplay:10.37,2013-03-21 05:44:00,
2013-03-20 22:54:00,57.7,43.1,29.15,South,191,2.0,6.0,58,0.00,SKC,SKC,0.35,WeatherDisplay:10.37,2013-03-21 05:54:00,
2013-03-20 23:04:00,57.2,42.1,29.15,SSW,194,0.0,4.0,57,0.00,SKC,SKC,0.35,WeatherDisplay:10.37,2013-03-21 06:04:00,
2013-03-20 23:09:00,57.0,42.4,29.15,SSW,200,0.0,4.0,58,0.00,SKC,SKC,0.35,WeatherDisplay:10.37,2013-03-21 06:09:00,
2013-03-20 23:14:00,56.8,41.8,29.15,SSW,200,0.0,3.0,57,0.00,SKC,SKC,0.35,WeatherDisplay:10.37,2013-03-21 06:14:00,
2013-03-20 23:24:00,56.4,40.9,29.15,South,177,0.0,4.0,56,0.00,SKC,SKC,0.35,WeatherDisplay:10.37,2013-03-21 06:24:00,
2013-03-20 23:34:00,56.1,41.1,29.15,South,169,0.0,0.0,57,0.00,SKC,SKC,0.35,WeatherDisplay:10.37,2013-03-21 06:34:00,
2013-03-20 23:44:00,56.1,41.1,29.15,South,170,0.0,0.0,57,0.00,SKC,SKC,0.35,WeatherDisplay:10.37,2013-03-21 06:44:00,
2013-03-20 23:54:00,55.9,40.9,29.12,SE,134,1.0,4.0,57,0.00,SKC,SKC,0.35,WeatherDisplay:10.37,2013-03-21 06:54:00,